Time;durP1;ratioP1;P1;durP2;ratioP2;P2;SDS_P1;SDS_P2;PMS_P1;PMS_P2;Temp;Humidity;BMP_temperature;BMP_pressure;BME280_temperature;BME280_humidity;BME280_pressure;Samples;Min_cycle;Max_cycle;Signal;HPM_P1;HPM_P2
2021/01/28 00:01:14;;;;;;;335.57;41.87;;;;;;;;;;5073710;28;20422;-50
2021/01/28 00:03:40;;;;;;;162.93;34.08;;;;;;;;;;5073836;28;20393;-50
2021/01/28 00:06:08;;;;;;;248.95;39.97;;;;;;;;;;5073388;28;20634;-53
2021/01/28 00:08:34;;;;;;;177.07;34.00;;;;;;;;;;5073170;28;20250;-50
2021/01/28 00:11:00;;;;;;;319.73;39.80;;;;;;;;;;5073575;28;20215;-50
2021/01/28 00:13:26;;;;;;;287.08;38.55;;;;;;;;;;5073062;28;20536;-53
2021/01/28 00:15:52;;;;;;;471.33;48.17;;;;;;;;;;5073440;28;20179;-53
2021/01/28 00:18:18;;;;;;;354.40;43.10;;;;;;;;;;5073386;28;20393;-49
2021/01/28 00:20:46;;;;;;;243.38;39.45;;;;;;;;;;5073248;28;20454;-52
2021/01/28 00:23:13;;;;;;;329.52;45.95;;;;;;;;;;5073181;28;20290;-50
2021/01/28 00:25:40;;;;;;;153.45;34.22;;;;;;;;;;5073457;28;20176;-50
2021/01/28 00:28:07;;;;;;;179.25;34.47;;;;;;;;;;5072588;28;20163;-50
2021/01/28 00:30:34;;;;;;;230.65;38.45;;;;;;;;;;5072919;28;20192;-52
2021/01/28 00:33:00;;;;;;;358.45;40.90;;;;;;;;;;5073021;28;20162;-49
2021/01/28 00:35:28;;;;;;;248.77;39.83;;;;;;;;;;5073125;28;20257;-50
2021/01/28 00:37:54;;;;;;;680.63;63.13;;;;;;;;;;5073046;28;20396;-49
2021/01/28 00:40:21;;;;;;;144.63;34.40;;;;;;;;;;5086239;28;20213;-50
2021/01/28 00:42:48;;;;;;;116.60;33.40;;;;;;;;;;5093346;28;20256;-49
2021/01/28 00:45:14;;;;;;;126.75;33.47;;;;;;;;;;5093582;28;20161;-52
2021/01/28 00:47:40;;;;;;;184.93;40.20;;;;;;;;;;5093231;28;20572;-50
2021/01/28 00:50:06;;;;;;;131.57;34.10;;;;;;;;;;5093509;28;20185;-51
2021/01/28 00:52:32;;;;;;;224.55;39.70;;;;;;;;;;5093248;28;20413;-49
2021/01/28 00:54:59;;;;;;;144.60;35.60;;;;;;;;;;5093567;28;20177;-49
2021/01/28 00:57:25;;;;;;;129.23;35.05;;;;;;;;;;5092825;28;20165;-49
2021/01/28 00:59:51;;;;;;;138.77;36.20;;;;;;;;;;5092928;28;20203;-49
2021/01/28 01:02:17;;;;;;;177.80;37.63;;;;;;;;;;5092935;28;20540;-50
2021/01/28 01:04:43;;;;;;;127.30;37.30;;;;;;;;;;5092841;28;20399;-49
2021/01/28 01:07:09;;;;;;;134.87;38.20;;;;;;;;;;5092663;28;20407;-50
2021/01/28 01:09:35;;;;;;;183.50;39.13;;;;;;;;;;5088120;28;20447;-50
2021/01/28 01:12:01;;;;;;;194.77;39.63;;;;;;;;;;5072547;28;20405;-52
2021/01/28 01:14:27;;;;;;;395.20;46.93;;;;;;;;;;5072412;28;20534;-52
2021/01/28 01:16:58;;;;;;;276.10;41.03;;;;;;;;;;5072096;28;20908;-49
2021/01/28 01:19:24;;;;;;;430.08;49.17;;;;;;;;;;5088128;28;20497;-49
2021/01/28 01:21:50;;;;;;;192.90;37.00;;;;;;;;;;5092655;28;20166;-49
2021/01/28 01:24:16;;;;;;;217.57;39.65;;;;;;;;;;5092663;28;20824;-49
2021/01/28 01:26:42;;;;;;;205.65;36.78;;;;;;;;;;5095008;28;20193;-52
2021/01/28 01:29:10;;;;;;;257.63;42.40;;;;;;;;;;5096103;28;20190;-51
2021/01/28 01:31:36;;;;;;;313.38;43.63;;;;;;;;;;5096644;28;20422;-52
2021/01/28 01:34:02;;;;;;;146.90;34.53;;;;;;;;;;5097322;28;20165;-51
2021/01/28 01:36:27;;;;;;;219.37;39.63;;;;;;;;;;5096491;28;20446;-52
2021/01/28 01:38:53;;;;;;;203.70;34.47;;;;;;;;;;5097081;28;20423;-53
2021/01/28 01:41:19;;;;;;;116.47;33.70;;;;;;;;;;5081184;28;20506;-52
2021/01/28 01:43:45;;;;;;;208.40;38.07;;;;;;;;;;5094229;28;20506;-53
2021/01/28 01:46:13;;;;;;;110.60;33.25;;;;;;;;;;5096200;28;20879;-52
2021/01/28 01:48:43;;;;;;;134.57;31.83;;;;;;;;;;5096619;28;20205;-52
2021/01/28 01:51:20;;;;;;;267.88;37.85;;;;;;;;;;5096564;28;20169;-51
2021/01/28 01:53:47;;;;;;;274.30;39.75;;;;;;;;;;5097355;28;20199;-52
2021/01/28 01:56:22;;;;;;;299.55;38.55;;;;;;;;;;5097537;28;20168;-52
2021/01/28 01:59:17;;;;;;;187.40;35.13;;;;;;;;;;5097335;28;20181;-52
2021/01/28 02:01:45;;;;;;;273.10;37.60;;;;;;;;;;5079304;28;20187;-53
2021/01/28 02:04:12;;;;;;;127.30;30.60;;;;;;;;;;5096684;28;20177;-50
2021/01/28 02:06:40;;;;;;;218.52;37.53;;;;;;;;;;5097150;28;20711;-51
2021/01/28 02:09:09;;;;;;;362.38;40.50;;;;;;;;;;5094610;28;20205;-52
2021/01/28 02:11:35;;;;;;;133.65;33.72;;;;;;;;;;5077280;28;20182;-52
2021/01/28 02:14:02;;;;;;;144.23;29.50;;;;;;;;;;5077427;28;20170;-52
2021/01/28 02:16:31;;;;;;;241.68;38.25;;;;;;;;;;5076596;28;20404;-52
2021/01/28 02:18:58;;;;;;;176.82;34.30;;;;;;;;;;5076896;28;20194;-52
2021/01/28 02:21:29;;;;;;;128.93;29.77;;;;;;;;;;5076525;28;20268;-51
2021/01/28 02:23:58;;;;;;;157.27;34.95;;;;;;;;;;5075694;28;20244;-52
2021/01/28 02:26:25;;;;;;;145.38;31.02;;;;;;;;;;5075547;28;20162;-51
2021/01/28 02:28:51;;;;;;;262.55;40.72;;;;;;;;;;5076201;28;20272;-52
2021/01/28 02:31:18;;;;;;;248.43;36.10;;;;;;;;;;5076559;28;20194;-52
2021/01/28 02:33:48;;;;;;;153.50;31.17;;;;;;;;;;5075782;28;20173;-50
2021/01/28 02:36:14;;;;;;;210.40;33.85;;;;;;;;;;5075939;28;20205;-50
2021/01/28 02:38:40;;;;;;;381.17;42.05;;;;;;;;;;5073963;28;20201;-52
2021/01/28 02:41:07;;;;;;;366.25;41.03;;;;;;;;;;5076827;28;20192;-51
2021/01/28 02:43:34;;;;;;;346.40;38.75;;;;;;;;;;5075603;28;20186;-53
2021/01/28 02:46:01;;;;;;;205.68;34.00;;;;;;;;;;5075499;28;20190;-52
2021/01/28 02:48:27;;;;;;;181.50;33.13;;;;;;;;;;5075702;28;20235;-52
2021/01/28 02:50:53;;;;;;;181.53;32.03;;;;;;;;;;5077186;28;20174;-52
2021/01/28 02:53:19;;;;;;;185.80;30.83;;;;;;;;;;5074929;28;20745;-52
2021/01/28 02:55:45;;;;;;;244.60;30.80;;;;;;;;;;5075507;28;20447;-52
2021/01/28 02:58:11;;;;;;;173.30;29.87;;;;;;;;;;5074892;28;20407;-51
2021/01/28 03:00:37;;;;;;;169.90;29.30;;;;;;;;;;5075876;28;20447;-52
2021/01/28 03:03:05;;;;;;;138.30;28.37;;;;;;;;;;5075781;28;20934;-52
2021/01/28 03:05:31;;;;;;;148.48;29.80;;;;;;;;;;5075782;28;20550;-52
2021/01/28 03:07:57;;;;;;;212.73;30.73;;;;;;;;;;5076591;28;20159;-52
2021/01/28 03:10:24;;;;;;;246.68;32.30;;;;;;;;;;5074301;28;20206;-52
2021/01/28 03:12:50;;;;;;;109.95;26.73;;;;;;;;;;5075668;28;20246;-53
2021/01/28 03:15:18;;;;;;;82.10;24.70;;;;;;;;;;5076107;28;20189;-51
2021/01/28 03:17:44;;;;;;;85.88;27.23;;;;;;;;;;5076119;28;20650;-51
2021/01/28 03:20:10;;;;;;;109.17;27.97;;;;;;;;;;5075488;28;20206;-52
2021/01/28 03:22:37;;;;;;;123.95;26.98;;;;;;;;;;5075674;28;20396;-51
2021/01/28 03:25:04;;;;;;;116.32;27.80;;;;;;;;;;5075745;28;20166;-52
2021/01/28 03:27:30;;;;;;;155.52;30.58;;;;;;;;;;5075537;28;20191;-51
2021/01/28 03:29:56;;;;;;;119.60;27.73;;;;;;;;;;5074617;28;20198;-53
2021/01/28 03:32:22;;;;;;;88.70;25.90;;;;;;;;;;5074988;28;20412;-52
2021/01/28 03:34:48;;;;;;;83.93;26.37;;;;;;;;;;5075215;28;20401;-52
2021/01/28 03:37:14;;;;;;;72.23;23.30;;;;;;;;;;5075663;28;20907;-52
2021/01/28 03:39:40;;;;;;;78.60;24.13;;;;;;;;;;5076380;28;20474;-52
2021/01/28 03:42:06;;;;;;;86.50;23.80;;;;;;;;;;5075549;28;20466;-52
2021/01/28 03:44:32;;;;;;;82.53;23.50;;;;;;;;;;5076927;28;20401;-52
2021/01/28 03:46:58;;;;;;;79.20;25.42;;;;;;;;;;5076141;28;20506;-52
2021/01/28 03:49:24;;;;;;;65.87;21.97;;;;;;;;;;5076705;28;20728;-52
2021/01/28 03:51:50;;;;;;;77.30;24.07;;;;;;;;;;5076566;28;20875;-51
2021/01/28 03:54:16;;;;;;;72.18;22.40;;;;;;;;;;5077826;28;20922;-52
2021/01/28 03:56:42;;;;;;;73.70;24.03;;;;;;;;;;5075886;28;20183;-51
2021/01/28 03:59:08;;;;;;;80.93;26.20;;;;;;;;;;5076302;28;20452;-51
2021/01/28 04:01:34;;;;;;;67.95;23.02;;;;;;;;;;5076014;28;20868;-51
2021/01/28 04:04:00;;;;;;;73.73;22.60;;;;;;;;;;5078605;28;20169;-50
2021/01/28 04:06:26;;;;;;;68.83;23.73;;;;;;;;;;5079951;28;20393;-51
2021/01/28 04:08:52;;;;;;;62.67;22.50;;;;;;;;;;5083138;28;20836;-52
2021/01/28 04:11:18;;;;;;;63.87;21.77;;;;;;;;;;5100236;28;20778;-52
2021/01/28 04:13:44;;;;;;;55.08;19.05;;;;;;;;;;5099810;28;20399;-52
2021/01/28 04:16:10;;;;;;;53.50;20.80;;;;;;;;;;5090352;28;20601;-53
2021/01/28 04:18:36;;;;;;;53.20;20.35;;;;;;;;;;5079078;28;20420;-52
2021/01/28 04:21:01;;;;;;;51.43;19.40;;;;;;;;;;5079282;28;20288;-53
2021/01/28 04:23:27;;;;;;;48.57;17.80;;;;;;;;;;5078447;28;20412;-52
2021/01/28 04:25:53;;;;;;;54.87;19.67;;;;;;;;;;5078915;28;20403;-52
2021/01/28 04:28:19;;;;;;;55.83;19.80;;;;;;;;;;5078456;28;20400;-52
2021/01/28 04:30:45;;;;;;;47.10;20.33;;;;;;;;;;5079779;28;20174;-52
2021/01/28 04:33:11;;;;;;;46.50;18.70;;;;;;;;;;5079143;28;20400;-52
2021/01/28 04:35:37;;;;;;;44.65;19.90;;;;;;;;;;5077532;28;20420;-52
2021/01/28 04:38:04;;;;;;;52.88;20.77;;;;;;;;;;5080416;28;20181;-52
2021/01/28 04:40:36;;;;;;;51.55;20.65;;;;;;;;;;5080748;28;20209;-52
2021/01/28 04:43:07;;;;;;;46.00;17.95;;;;;;;;;;5079832;28;20177;-52
2021/01/28 04:45:33;;;;;;;52.25;19.50;;;;;;;;;;5079987;28;20748;-52
2021/01/28 04:48:01;;;;;;;43.70;19.17;;;;;;;;;;5080154;28;20658;-51
2021/01/28 04:50:30;;;;;;;43.17;18.88;;;;;;;;;;5078646;28;20190;-50
2021/01/28 04:53:00;;;;;;;38.72;17.20;;;;;;;;;;5078587;28;20174;-52
2021/01/28 04:55:34;;;;;;;38.95;17.67;;;;;;;;;;5077961;28;20177;-52
2021/01/28 04:58:00;;;;;;;42.70;18.95;;;;;;;;;;5078401;28;20173;-52
2021/01/28 05:00:25;;;;;;;43.70;15.80;;;;;;;;;;5078242;28;20201;-53
2021/01/28 05:02:55;;;;;;;46.80;17.53;;;;;;;;;;5078863;28;20480;-53
2021/01/28 05:05:21;;;;;;;40.22;16.13;;;;;;;;;;5077882;28;20408;-52
2021/01/28 05:07:47;;;;;;;42.83;15.80;;;;;;;;;;5077721;28;20173;-51
2021/01/28 05:10:33;;;;;;;41.10;16.17;;;;;;;;;;5077398;28;20419;-53
2021/01/28 05:13:00;;;;;;;28.70;14.27;;;;;;;;;;5078269;28;20318;-51
2021/01/28 05:15:27;;;;;;;36.05;16.95;;;;;;;;;;5077659;28;20177;-53
2021/01/28 05:18:02;;;;;;;31.42;15.40;;;;;;;;;;5097486;28;20185;-51
2021/01/28 05:20:29;;;;;;;30.45;14.13;;;;;;;;;;5098498;28;20699;-52
2021/01/28 05:23:03;;;;;;;25.40;13.77;;;;;;;;;;5098446;28;20699;-52
2021/01/28 05:25:29;;;;;;;23.60;13.10;;;;;;;;;;5098866;28;20176;-51
2021/01/28 05:27:55;;;;;;;35.00;15.27;;;;;;;;;;5099376;28;20209;-51
2021/01/28 05:30:41;;;;;;;24.80;12.73;;;;;;;;;;5099841;28;20823;-50
2021/01/28 05:33:26;;;;;;;31.80;13.95;;;;;;;;;;5099774;28;20587;-52
2021/01/28 05:36:24;;;;;;;26.45;14.30;;;;;;;;;;5098655;28;20184;-51
2021/01/28 05:38:51;;;;;;;35.83;16.42;;;;;;;;;;5053914;28;20257;-52
2021/01/28 05:41:29;;;;;;;28.38;15.15;;;;;;;;;;5097803;28;20200;-51
2021/01/28 05:43:55;;;;;;;24.42;13.13;;;;;;;;;;5100437;28;20292;-53
2021/01/28 05:46:23;;;;;;;31.08;15.18;;;;;;;;;;5085761;28;20208;-52
2021/01/28 05:49:08;;;;;;;25.27;13.95;;;;;;;;;;5079578;28;20200;-52
2021/01/28 05:51:41;;;;;;;23.45;13.45;;;;;;;;;;5080281;28;20208;-52
2021/01/28 05:54:09;;;;;;;25.10;13.07;;;;;;;;;;5088273;28;20184;-52
2021/01/28 05:56:51;;;;;;;24.08;13.43;;;;;;;;;;5098284;28;20218;-52
2021/01/28 05:59:22;;;;;;;25.33;13.63;;;;;;;;;;5097507;28;20256;-52
2021/01/28 06:02:07;;;;;;;21.08;12.13;;;;;;;;;;5097934;28;20161;-52
2021/01/28 06:04:33;;;;;;;25.63;14.27;;;;;;;;;;5098780;28;20616;-52
2021/01/28 06:07:18;;;;;;;21.67;12.00;;;;;;;;;;5098602;28;20191;-52
2021/01/28 06:10:02;;;;;;;17.90;10.80;;;;;;;;;;5098413;28;20506;-53
2021/01/28 06:12:43;;;;;;;19.38;12.80;;;;;;;;;;5098594;28;20173;-52
2021/01/28 06:15:21;;;;;;;17.73;10.93;;;;;;;;;;5095935;28;21169;-52
2021/01/28 06:18:00;;;;;;;17.95;9.30;;;;;;;;;;5078870;28;20172;-50
2021/01/28 06:20:32;;;;;;;20.20;11.20;;;;;;;;;;5079078;28;20209;-52
2021/01/28 06:23:10;;;;;;;18.58;11.60;;;;;;;;;;5079483;28;20234;-53
2021/01/28 06:25:59;;;;;;;20.77;10.48;;;;;;;;;;5078947;28;20639;-52
2021/01/28 06:28:25;;;;;;;16.90;10.20;;;;;;;;;;5078063;28;20245;-51
2021/01/28 06:31:00;;;;;;;15.77;9.83;;;;;;;;;;5077156;28;20209;-51
2021/01/28 06:33:26;;;;;;;16.20;10.45;;;;;;;;;;5079053;28;20437;-53
2021/01/28 06:35:57;;;;;;;13.97;9.00;;;;;;;;;;5078559;28;20201;-52
2021/01/28 06:38:35;;;;;;;13.95;9.23;;;;;;;;;;5078682;28;20423;-51
2021/01/28 06:41:06;;;;;;;15.10;8.75;;;;;;;;;;5078903;28;20194;-53
2021/01/28 06:43:44;;;;;;;19.27;8.05;;;;;;;;;;5078293;28;20264;-51
2021/01/28 06:46:19;;;;;;;14.07;9.07;;;;;;;;;;5093616;28;20181;-52
2021/01/28 06:48:46;;;;;;;13.82;8.05;;;;;;;;;;5098437;28;20222;-52
2021/01/28 06:51:36;;;;;;;13.45;7.90;;;;;;;;;;5097884;28;20293;-52
2021/01/28 06:54:14;;;;;;;11.50;7.72;;;;;;;;;;5098367;28;20173;-51
2021/01/28 06:56:49;;;;;;;15.65;8.07;;;;;;;;;;5098388;28;20564;-53
2021/01/28 06:59:14;;;;;;;12.70;7.35;;;;;;;;;;5096349;28;20223;-51
2021/01/28 07:01:51;;;;;;;14.73;8.20;;;;;;;;;;5097700;28;20165;-51
2021/01/28 07:04:16;;;;;;;11.38;7.70;;;;;;;;;;5096241;28;20436;-51
2021/01/28 07:06:53;;;;;;;15.23;8.10;;;;;;;;;;5096307;28;20168;-52
2021/01/28 07:09:30;;;;;;;19.00;8.20;;;;;;;;;;5096490;28;20427;-53
2021/01/28 07:11:59;;;;;;;15.43;7.60;;;;;;;;;;5096678;28;20173;-52
2021/01/28 07:14:25;;;;;;;13.13;8.90;;;;;;;;;;5096729;28;20165;-51
2021/01/28 07:16:54;;;;;;;13.80;8.63;;;;;;;;;;5094795;28;20229;-52
2021/01/28 07:19:20;;;;;;;12.02;8.43;;;;;;;;;;5096954;28;20291;-52
2021/01/28 07:21:48;;;;;;;16.27;9.33;;;;;;;;;;5096777;28;20193;-52
2021/01/28 07:24:33;;;;;;;13.10;8.25;;;;;;;;;;5096241;28;20501;-52
2021/01/28 07:27:10;;;;;;;8.90;7.15;;;;;;;;;;5093340;28;20164;-50
2021/01/28 07:29:38;;;;;;;14.55;8.15;;;;;;;;;;5090553;28;20196;-51
2021/01/28 07:32:07;;;;;;;8.68;7.25;;;;;;;;;;5090525;28;20625;-50
2021/01/28 07:34:33;;;;;;;10.73;5.72;;;;;;;;;;5090593;28;20181;-52
2021/01/28 07:37:17;;;;;;;9.13;6.20;;;;;;;;;;5090177;28;20175;-50
2021/01/28 07:39:44;;;;;;;8.45;6.65;;;;;;;;;;5094315;28;20265;-50
2021/01/28 07:42:30;;;;;;;11.45;6.07;;;;;;;;;;5094406;28;20236;-52
2021/01/28 07:44:57;;;;;;;12.18;5.97;;;;;;;;;;5093196;28;20179;-51
2021/01/28 07:47:32;;;;;;;8.50;5.70;;;;;;;;;;5093188;28;20616;-51
2021/01/28 07:50:16;;;;;;;12.38;7.53;;;;;;;;;;5094421;28;20200;-50
2021/01/28 07:52:43;;;;;;;11.23;7.22;;;;;;;;;;5074344;28;20869;-51
2021/01/28 07:55:27;;;;;;;12.73;8.23;;;;;;;;;;5074247;28;20457;-50
2021/01/28 07:57:55;;;;;;;11.60;7.07;;;;;;;;;;5073835;28;20538;-50
2021/01/28 08:00:22;;;;;;;11.93;8.18;;;;;;;;;;5073631;28;20203;-51
2021/01/28 08:03:01;;;;;;;11.80;7.57;;;;;;;;;;5073140;28;20663;-50
2021/01/28 08:05:28;;;;;;;11.32;6.60;;;;;;;;;;5072322;28;20172;-51
2021/01/28 08:08:14;;;;;;;9.13;5.63;;;;;;;;;;5073832;28;20268;-51
2021/01/28 08:10:42;;;;;;;8.90;6.40;;;;;;;;;;5072930;28;20692;-51
2021/01/28 08:13:17;;;;;;;9.25;5.13;;;;;;;;;;5083270;28;20548;-50
2021/01/28 08:15:53;;;;;;;6.72;5.55;;;;;;;;;;5092629;28;20205;-53
2021/01/28 08:18:22;;;;;;;8.70;5.00;;;;;;;;;;5093162;28;20228;-50
2021/01/28 08:20:48;;;;;;;4.80;4.32;;;;;;;;;;5093250;28;20240;-50
2021/01/28 08:23:16;;;;;;;4.78;4.28;;;;;;;;;;5091489;28;20694;-51
2021/01/28 08:25:53;;;;;;;7.20;4.80;;;;;;;;;;5081109;28;20205;-53
2021/01/28 08:28:19;;;;;;;5.70;4.22;;;;;;;;;;5093458;28;20169;-53
2021/01/28 08:30:46;;;;;;;6.25;4.20;;;;;;;;;;5096914;28;20172;-52
2021/01/28 08:33:14;;;;;;;4.47;4.05;;;;;;;;;;5096698;28;20502;-50
2021/01/28 08:35:43;;;;;;;5.30;4.57;;;;;;;;;;5096719;28;20168;-51
2021/01/28 08:38:38;;;;;;;5.57;4.32;;;;;;;;;;5097873;28;20230;-52
2021/01/28 08:41:16;;;;;;;4.82;3.95;;;;;;;;;;5080735;28;20221;-51
2021/01/28 08:43:42;;;;;;;4.47;3.78;;;;;;;;;;5098310;28;20173;-53
2021/01/28 08:46:13;;;;;;;3.70;3.40;;;;;;;;;;5086727;28;20178;-52
2021/01/28 08:48:39;;;;;;;6.65;4.22;;;;;;;;;;5077931;28;20213;-52
2021/01/28 08:51:10;;;;;;;5.35;4.15;;;;;;;;;;5076747;28;20171;-52
2021/01/28 08:53:37;;;;;;;4.60;4.00;;;;;;;;;;5087357;28;20187;-52
2021/01/28 08:56:19;;;;;;;5.05;4.35;;;;;;;;;;5097834;28;20633;-51
2021/01/28 08:58:45;;;;;;;5.00;4.50;;;;;;;;;;5098005;28;20261;-52
2021/01/28 09:01:13;;;;;;;7.88;4.95;;;;;;;;;;5098500;28;20204;-51
2021/01/28 09:03:48;;;;;;;5.47;4.80;;;;;;;;;;5098588;28;20162;-52
2021/01/28 09:06:14;;;;;;;6.10;4.88;;;;;;;;;;5098250;28;20164;-53
2021/01/28 09:08:41;;;;;;;7.10;4.90;;;;;;;;;;5097617;28;20192;-52
2021/01/28 09:11:27;;;;;;;5.55;5.00;;;;;;;;;;5097464;28;20248;-51
2021/01/28 09:14:14;;;;;;;4.45;4.05;;;;;;;;;;5092651;28;20174;-52
2021/01/28 09:16:40;;;;;;;5.25;3.97;;;;;;;;;;5078200;28;20170;-52
2021/01/28 09:19:16;;;;;;;6.28;4.05;;;;;;;;;;5076762;28;20203;-52
2021/01/28 09:21:44;;;;;;;4.43;4.03;;;;;;;;;;5075920;28;20174;-52
2021/01/28 09:24:31;;;;;;;4.72;4.32;;;;;;;;;;5076527;28;20165;-52
2021/01/28 09:27:07;;;;;;;4.47;4.07;;;;;;;;;;5076817;28;20580;-52
2021/01/28 09:29:36;;;;;;;4.40;4.00;;;;;;;;;;5076791;28;20753;-53
2021/01/28 09:32:07;;;;;;;3.92;3.60;;;;;;;;;;5077453;28;20178;-52
2021/01/28 09:34:33;;;;;;;3.97;3.67;;;;;;;;;;5077100;28;20174;-52
2021/01/28 09:37:00;;;;;;;3.53;3.22;;;;;;;;;;5078223;28;20174;-52
2021/01/28 09:39:29;;;;;;;3.95;3.65;;;;;;;;;;5077398;28;20276;-52
2021/01/28 09:41:55;;;;;;;3.97;3.58;;;;;;;;;;5077969;28;20189;-52
2021/01/28 09:44:39;;;;;;;3.87;3.50;;;;;;;;;;5075945;28;20646;-54
2021/01/28 09:47:25;;;;;;;5.10;3.50;;;;;;;;;;5077335;28;20421;-52
2021/01/28 09:49:53;;;;;;;4.13;3.20;;;;;;;;;;5077340;28;20197;-52
2021/01/28 09:52:21;;;;;;;4.90;3.97;;;;;;;;;;5078257;28;20602;-53
2021/01/28 09:54:51;;;;;;;4.20;3.80;;;;;;;;;;5078037;28;20172;-53
2021/01/28 09:57:17;;;;;;;4.35;3.95;;;;;;;;;;5077638;28;20180;-53
2021/01/28 09:59:43;;;;;;;4.30;3.90;;;;;;;;;;5076647;28;20201;-53
2021/01/28 10:02:11;;;;;;;5.20;4.10;;;;;;;;;;5077804;28;20162;-52
2021/01/28 10:04:37;;;;;;;4.00;3.60;;;;;;;;;;5077853;28;20401;-52
2021/01/28 10:07:03;;;;;;;4.53;4.10;;;;;;;;;;5078001;28;20248;-53
2021/01/28 10:09:29;;;;;;;5.47;4.97;;;;;;;;;;5077655;28;20420;-52
2021/01/28 10:11:55;;;;;;;4.60;4.20;;;;;;;;;;5095512;28;20542;-52
2021/01/28 10:14:21;;;;;;;4.67;3.77;;;;;;;;;;5098467;28;20404;-52
2021/01/28 10:16:47;;;;;;;4.90;4.40;;;;;;;;;;5098885;28;20966;-50
2021/01/28 10:19:13;;;;;;;5.40;4.60;;;;;;;;;;5098618;28;21026;-52
2021/01/28 10:21:41;;;;;;;4.90;3.70;;;;;;;;;;5097874;28;20760;-52
2021/01/28 10:24:07;;;;;;;6.00;3.90;;;;;;;;;;5098211;28;20171;-52
2021/01/28 10:26:33;;;;;;;4.30;3.90;;;;;;;;;;5097966;28;20200;-53
2021/01/28 10:28:59;;;;;;;5.80;4.33;;;;;;;;;;5099457;28;20531;-51
2021/01/28 10:31:29;;;;;;;5.43;4.43;;;;;;;;;;5098161;28;20411;-49
2021/01/28 10:33:55;;;;;;;7.97;5.80;;;;;;;;;;5087097;28;20418;-52
2021/01/28 10:36:22;;;;;;;7.73;5.17;;;;;;;;;;5078076;28;20166;-52
2021/01/28 10:38:48;;;;;;;7.97;5.97;;;;;;;;;;5074632;28;20805;-53
2021/01/28 10:41:16;;;;;;;9.90;5.20;;;;;;;;;;5088030;28;20204;-52
2021/01/28 10:43:42;;;;;;;5.65;5.15;;;;;;;;;;5097208;28;20419;-52
2021/01/28 10:46:09;;;;;;;6.65;5.05;;;;;;;;;;5080573;28;20222;-53
2021/01/28 10:48:35;;;;;;;5.85;4.82;;;;;;;;;;5095310;28;20253;-54
2021/01/28 10:51:01;;;;;;;4.82;4.40;;;;;;;;;;5076608;28;20177;-53
2021/01/28 10:53:27;;;;;;;5.97;4.50;;;;;;;;;;5077204;28;20176;-52
2021/01/28 10:55:52;;;;;;;4.90;4.60;;;;;;;;;;5077786;28;20233;-53
2021/01/28 10:58:22;;;;;;;8.47;4.40;;;;;;;;;;5078103;28;20401;-53
2021/01/28 11:00:48;;;;;;;8.73;5.00;;;;;;;;;;5078068;28;20452;-51
2021/01/28 11:03:14;;;;;;;6.85;5.05;;;;;;;;;;5076704;28;20162;-52
2021/01/28 11:05:40;;;;;;;6.22;5.28;;;;;;;;;;5077089;28;20182;-52
2021/01/28 11:08:07;;;;;;;8.60;4.90;;;;;;;;;;5080320;28;20166;-53
2021/01/28 11:10:33;;;;;;;9.95;5.65;;;;;;;;;;5069681;28;20482;-50
2021/01/28 11:13:00;;;;;;;8.50;5.60;;;;;;;;;;5088290;28;20186;-50
2021/01/28 11:15:27;;;;;;;6.22;4.85;;;;;;;;;;5090433;28;20173;-53
2021/01/28 11:17:53;;;;;;;5.40;4.90;;;;;;;;;;5090645;28;20306;-52
2021/01/28 11:20:19;;;;;;;5.57;4.50;;;;;;;;;;5090305;28;20284;-55
2021/01/28 11:22:45;;;;;;;6.40;4.65;;;;;;;;;;5090608;28;20424;-50
2021/01/28 11:25:13;;;;;;;5.75;4.22;;;;;;;;;;5090775;28;20181;-51
2021/01/28 11:27:39;;;;;;;4.97;4.57;;;;;;;;;;5097712;28;20185;-50
2021/01/28 11:30:07;;;;;;;6.07;5.47;;;;;;;;;;5072829;28;20197;-51
2021/01/28 11:32:33;;;;;;;5.50;4.68;;;;;;;;;;5089046;28;20184;-53
2021/01/28 11:34:59;;;;;;;8.37;5.57;;;;;;;;;;5090556;28;20169;-51
2021/01/28 11:37:25;;;;;;;8.10;5.07;;;;;;;;;;5090177;28;20462;-51
2021/01/28 11:39:51;;;;;;;7.65;4.70;;;;;;;;;;5090372;28;21026;-50
2021/01/28 11:42:18;;;;;;;7.83;5.20;;;;;;;;;;5088078;28;20255;-50
2021/01/28 11:44:44;;;;;;;6.50;5.50;;;;;;;;;;5089093;28;20921;-51
2021/01/28 11:47:10;;;;;;;6.05;4.93;;;;;;;;;;5089975;28;20181;-52
2021/01/28 11:49:36;;;;;;;8.30;5.50;;;;;;;;;;5090309;28;20245;-50
2021/01/28 11:52:02;;;;;;;8.83;6.27;;;;;;;;;;5090465;28;20407;-50
2021/01/28 11:54:28;;;;;;;6.63;5.25;;;;;;;;;;5090118;28;20453;-50
2021/01/28 11:56:54;;;;;;;8.03;5.80;;;;;;;;;;5090033;28;20173;-50
2021/01/28 11:59:20;;;;;;;6.13;5.63;;;;;;;;;;5090041;28;20523;-50
2021/01/28 12:01:46;;;;;;;6.53;5.00;;;;;;;;;;5090373;28;20170;-50
2021/01/28 12:04:12;;;;;;;7.67;6.87;;;;;;;;;;5090407;28;20400;-50
2021/01/28 12:06:40;;;;;;;6.50;5.70;;;;;;;;;;5089943;28;20411;-50
2021/01/28 12:09:05;;;;;;;7.75;6.03;;;;;;;;;;5089422;28;20790;-50
2021/01/28 12:11:31;;;;;;;8.87;7.70;;;;;;;;;;5089593;28;20172;-50
2021/01/28 12:13:58;;;;;;;10.00;7.10;;;;;;;;;;5072352;28;20420;-50
2021/01/28 12:16:23;;;;;;;7.88;5.07;;;;;;;;;;5069320;28;20399;-50
2021/01/28 12:18:50;;;;;;;7.10;5.17;;;;;;;;;;5069521;28;20594;-50
2021/01/28 12:21:16;;;;;;;6.35;5.75;;;;;;;;;;5069605;28;20459;-51
2021/01/28 12:23:41;;;;;;;6.80;5.80;;;;;;;;;;5069988;28;20162;-51
2021/01/28 12:26:07;;;;;;;5.70;4.43;;;;;;;;;;5072123;28;20413;-52
2021/01/28 12:28:33;;;;;;;5.77;4.87;;;;;;;;;;5073353;28;20413;-52
2021/01/28 12:30:59;;;;;;;6.70;5.17;;;;;;;;;;5073482;28;20759;-51
2021/01/28 12:33:25;;;;;;;7.73;4.80;;;;;;;;;;5073197;28;20470;-52
2021/01/28 12:35:51;;;;;;;6.28;4.95;;;;;;;;;;5073214;28;20400;-50
2021/01/28 12:38:17;;;;;;;6.23;4.43;;;;;;;;;;5073043;28;20173;-50
2021/01/28 12:40:43;;;;;;;5.25;4.75;;;;;;;;;;5073392;28;20460;-50
2021/01/28 12:43:09;;;;;;;5.60;4.80;;;;;;;;;;5072886;28;20666;-51
2021/01/28 12:45:35;;;;;;;8.18;5.20;;;;;;;;;;5072898;28;20412;-50
2021/01/28 12:48:01;;;;;;;5.20;4.70;;;;;;;;;;5072901;28;20181;-50
2021/01/28 12:50:28;;;;;;;8.27;4.45;;;;;;;;;;5072932;28;20428;-50
2021/01/28 12:52:54;;;;;;;5.13;4.72;;;;;;;;;;5072971;28;20158;-51
2021/01/28 12:55:20;;;;;;;5.37;4.87;;;;;;;;;;5072314;28;20162;-51
2021/01/28 12:57:46;;;;;;;8.95;4.32;;;;;;;;;;5073161;28;20551;-51
2021/01/28 13:00:15;;;;;;;4.53;4.17;;;;;;;;;;5070938;28;20573;-50
2021/01/28 13:02:41;;;;;;;4.22;3.90;;;;;;;;;;5072425;28;20812;-52
2021/01/28 13:05:07;;;;;;;5.20;4.70;;;;;;;;;;5070776;28;20162;-51
2021/01/28 13:07:33;;;;;;;6.05;4.95;;;;;;;;;;5070798;28;20403;-50
2021/01/28 13:09:59;;;;;;;4.50;3.80;;;;;;;;;;5071991;28;20186;-51
2021/01/28 13:12:25;;;;;;;5.07;4.67;;;;;;;;;;5072798;28;20408;-50
2021/01/28 13:14:51;;;;;;;5.50;4.75;;;;;;;;;;5086896;28;20480;-52
2021/01/28 13:17:17;;;;;;;4.63;4.23;;;;;;;;;;5092363;28;20169;-52
2021/01/28 13:19:43;;;;;;;5.07;4.60;;;;;;;;;;5092547;28;20447;-50
2021/01/28 13:22:09;;;;;;;5.55;4.78;;;;;;;;;;5092786;28;20565;-50
2021/01/28 13:24:35;;;;;;;7.70;4.50;;;;;;;;;;5092784;28;20177;-51
2021/01/28 13:27:01;;;;;;;4.80;4.37;;;;;;;;;;5095505;28;20421;-52
2021/01/28 13:29:27;;;;;;;5.87;5.27;;;;;;;;;;5104168;28;20488;-52
2021/01/28 13:31:53;;;;;;;4.73;4.33;;;;;;;;;;5101663;28;20404;-52
2021/01/28 13:34:19;;;;;;;4.80;4.40;;;;;;;;;;5099350;28;20859;-52
2021/01/28 13:36:45;;;;;;;5.90;5.17;;;;;;;;;;5098872;28;20478;-52
2021/01/28 13:39:11;;;;;;;5.60;5.10;;;;;;;;;;5100001;28;20420;-51
2021/01/28 13:41:37;;;;;;;4.85;4.45;;;;;;;;;;5100842;28;20408;-51
2021/01/28 13:44:03;;;;;;;5.80;4.90;;;;;;;;;;5095250;28;20171;-52
2021/01/28 13:46:30;;;;;;;4.93;4.53;;;;;;;;;;5080845;28;20435;-53
2021/01/28 13:48:55;;;;;;;8.15;4.65;;;;;;;;;;5084559;28;20194;-52
2021/01/28 13:51:21;;;;;;;5.43;4.93;;;;;;;;;;5083750;28;20189;-52
2021/01/28 13:53:47;;;;;;;6.10;4.73;;;;;;;;;;5085208;28;20400;-52
2021/01/28 13:56:13;;;;;;;5.00;4.40;;;;;;;;;;5083244;28;20404;-51
2021/01/28 13:58:39;;;;;;;6.07;5.45;;;;;;;;;;5088991;28;20808;-50
2021/01/28 14:01:05;;;;;;;5.57;5.00;;;;;;;;;;5100893;28;20189;-49
2021/01/28 14:03:31;;;;;;;5.70;4.97;;;;;;;;;;5102235;28;20403;-52
2021/01/28 14:05:57;;;;;;;5.13;4.63;;;;;;;;;;5103511;28;20431;-54
2021/01/28 14:08:23;;;;;;;5.30;4.90;;;;;;;;;;5103261;28;20400;-54
2021/01/28 14:10:49;;;;;;;5.50;5.00;;;;;;;;;;5103019;28;20554;-53
2021/01/28 14:13:15;;;;;;;4.97;4.47;;;;;;;;;;5097075;28;20791;-53
2021/01/28 14:15:42;;;;;;;5.70;5.20;;;;;;;;;;5090071;28;20459;-52
2021/01/28 14:18:15;;;;;;;5.90;5.38;;;;;;;;;;5096072;28;20416;-52
2021/01/28 14:20:41;;;;;;;5.10;4.63;;;;;;;;;;5095563;28;20217;-52
2021/01/28 14:23:07;;;;;;;5.25;4.85;;;;;;;;;;5100911;28;20166;-53
2021/01/28 14:25:33;;;;;;;8.95;5.13;;;;;;;;;;5091156;28;20193;-50
2021/01/28 14:27:59;;;;;;;6.33;4.70;;;;;;;;;;5100356;28;20641;-51
2021/01/28 14:30:25;;;;;;;5.33;4.83;;;;;;;;;;5100865;28;20773;-51
2021/01/28 14:32:51;;;;;;;5.13;4.53;;;;;;;;;;5100854;28;20469;-52
2021/01/28 14:35:19;;;;;;;5.00;4.60;;;;;;;;;;5100693;28;20654;-51